Time;durP1;ratioP1;P1;durP2;ratioP2;P2;SDS_P1;SDS_P2;PMS_P1;PMS_P2;Temp;Humidity;BMP_temperature;BMP_pressure;BME280_temperature;BME280_humidity;BME280_pressure;Samples;Min_cycle;Max_cycle;Signal;HPM_P1;HPM_P2
2023/10/25 00:00:18;;;;;;;70.17;9.77;;;8.00;99.90;;;;;;2060589;28;20190;-70
2023/10/25 00:01:18;;;;;;;85.17;11.70;;;7.90;99.90;;;;;;2064384;28;20186;-70
2023/10/25 00:02:19;;;;;;;44.10;8.67;;;7.80;99.90;;;;;;2061956;28;20688;-70
2023/10/25 00:03:20;;;;;;;49.53;9.80;;;7.80;99.90;;;;;;2063215;28;20537;-70
2023/10/25 00:04:20;;;;;;;38.07;8.73;;;7.90;99.90;;;;;;2057037;28;20241;-69
2023/10/25 00:05:21;;;;;;;39.40;9.37;;;7.90;99.90;;;;;;2060866;28;20316;-70
2023/10/25 00:06:23;;;;;;;43.33;9.57;;;7.90;99.90;;;;;;2060343;28;20812;-70
2023/10/25 00:07:23;;;;;;;33.08;9.00;;;7.90;99.90;;;;;;2064952;28;20233;-69
2023/10/25 00:08:24;;;;;;;17.57;5.77;;;8.00;99.90;;;;;;2064027;28;20295;-70
2023/10/25 00:09:24;;;;;;;13.77;6.33;;;8.00;99.90;;;;;;2063911;28;20293;-71
2023/10/25 00:10:25;;;;;;;8.33;5.10;;;7.90;99.90;;;;;;2066460;28;20321;-69
2023/10/25 00:11:26;;;;;;;44.10;9.10;;;7.90;99.90;;;;;;2060840;28;20234;-69
2023/10/25 00:12:27;;;;;;;33.43;6.17;;;7.90;99.90;;;;;;2063533;28;20309;-69
2023/10/25 00:13:28;;;;;;;105.70;9.48;;;7.80;99.90;;;;;;2062573;28;20312;-69
2023/10/25 00:14:28;;;;;;;29.97;7.40;;;7.80;99.90;;;;;;2061237;28;20252;-70
2023/10/25 00:15:29;;;;;;;56.27;10.17;;;7.60;99.90;;;;;;2065247;28;20642;-70
2023/10/25 00:16:29;;;;;;;46.63;5.83;;;7.50;99.90;;;;;;2058254;28;20369;-70
2023/10/25 00:17:30;;;;;;;59.00;7.77;;;7.50;99.90;;;;;;2061231;28;20237;-69
2023/10/25 00:18:31;;;;;;;110.47;13.57;;;7.60;99.90;;;;;;2063228;28;20246;-69
2023/10/25 00:19:31;;;;;;;113.97;12.53;;;7.60;99.90;;;;;;2061339;28;20971;-69
2023/10/25 00:20:32;;;;;;;70.77;9.53;;;7.60;99.90;;;;;;2060379;28;20256;-69
2023/10/25 00:21:32;;;;;;;54.67;8.73;;;7.60;99.90;;;;;;2064374;28;20276;-70
2023/10/25 00:22:33;;;;;;;31.70;7.77;;;7.70;99.90;;;;;;2063646;28;20241;-70
2023/10/25 00:23:34;;;;;;;39.93;9.57;;;7.80;99.90;;;;;;2063199;28;20273;-70
2023/10/25 00:24:34;;;;;;;31.10;7.60;;;7.70;99.90;;;;;;2064257;28;20672;-70
2023/10/25 00:25:35;;;;;;;28.00;7.27;;;7.80;99.90;;;;;;2063086;28;20333;-69
2023/10/25 00:26:35;;;;;;;29.03;9.13;;;7.80;99.90;;;;;;2063983;28;20276;-70
2023/10/25 00:27:36;;;;;;;24.00;8.60;;;7.80;99.90;;;;;;2059296;28;20712;-69
2023/10/25 00:28:38;;;;;;;14.20;6.67;;;7.90;99.90;;;;;;2063042;28;20232;-69
2023/10/25 00:29:38;;;;;;;7.90;6.22;;;8.00;99.90;;;;;;2062622;28;20240;-70
2023/10/25 00:30:39;;;;;;;9.00;6.40;;;7.90;99.90;;;;;;2062429;28;20238;-69
2023/10/25 00:31:40;;;;;;;12.20;6.00;;;7.80;99.90;;;;;;2063980;28;20324;-69
2023/10/25 00:32:41;;;;;;;8.20;6.20;;;7.70;99.90;;;;;;2060603;28;20235;-69
2023/10/25 00:33:42;;;;;;;8.48;5.15;;;7.70;99.90;;;;;;2059826;28;20284;-69
2023/10/25 00:34:42;;;;;;;7.20;5.80;;;7.70;99.90;;;;;;2063865;28;20801;-70
2023/10/25 00:35:43;;;;;;;5.43;4.93;;;7.70;99.90;;;;;;2062078;28;20233;-69
2023/10/25 00:36:43;;;;;;;5.23;4.73;;;7.70;99.90;;;;;;2063711;28;20704;-69
2023/10/25 00:37:44;;;;;;;6.93;4.60;;;7.70;99.90;;;;;;2063100;28;20230;-69
2023/10/25 00:38:44;;;;;;;3.90;3.50;;;7.80;99.90;;;;;;2062648;28;20236;-70
2023/10/25 00:39:45;;;;;;;4.33;3.90;;;7.80;99.90;;;;;;2064824;28;20226;-69
2023/10/25 00:40:46;;;;;;;4.67;4.00;;;7.80;99.90;;;;;;2062693;28;20738;-69
2023/10/25 00:41:46;;;;;;;3.40;3.10;;;7.80;99.90;;;;;;2060644;28;20834;-70
2023/10/25 00:42:47;;;;;;;2.60;2.40;;;7.80;99.90;;;;;;2063810;28;20229;-70
2023/10/25 00:43:47;;;;;;;3.83;3.40;;;7.80;99.90;;;;;;2059961;28;20234;-69
2023/10/25 00:44:48;;;;;;;3.53;3.13;;;7.80;99.90;;;;;;2060058;28;20316;-70
2023/10/25 00:46:14;;;;;;;4.73;4.33;;;7.80;99.90;;;;;;2061275;28;20421;-69
2023/10/25 00:47:15;;;;;;;28.17;6.05;;;7.80;99.90;;;;;;2066089;28;20333;-69
2023/10/25 00:48:16;;;;;;;18.57;5.37;;;7.80;99.90;;;;;;2068867;28;20334;-70
2023/10/25 00:49:17;;;;;;;9.30;6.00;;;7.80;99.90;;;;;;2064257;28;20248;-70
2023/10/25 00:50:18;;;;;;;29.90;6.35;;;7.70;99.90;;;;;;2061515;28;20676;-69
2023/10/25 00:51:21;;;;;;;56.13;10.07;;;7.60;99.90;;;;;;2062848;28;20198;-70
2023/10/25 00:52:22;;;;;;;19.13;6.68;;;7.70;99.90;;;;;;2063399;28;20245;-69
2023/10/25 00:53:23;;;;;;;15.87;5.93;;;7.70;99.90;;;;;;2063955;28;20614;-69
2023/10/25 00:54:24;;;;;;;9.20;4.43;;;7.70;99.90;;;;;;2061537;28;20229;-70
2023/10/25 00:55:25;;;;;;;5.22;4.60;;;7.60;99.90;;;;;;2064240;28;20793;-70
2023/10/25 00:56:27;;;;;;;4.50;4.10;;;7.60;99.90;;;;;;2063312;28;20240;-69
2023/10/25 00:57:28;;;;;;;4.93;4.43;;;7.40;99.90;;;;;;2061906;28;20229;-70
2023/10/25 00:58:30;;;;;;;4.97;4.50;;;7.50;99.90;;;;;;2060448;28;20317;-70
2023/10/25 00:59:31;;;;;;;5.55;4.55;;;7.50;99.90;;;;;;2059835;28;20253;-70
2023/10/25 01:00:32;;;;;;;5.63;4.28;;;7.50;99.90;;;;;;2057577;28;20296;-70
2023/10/25 01:01:33;;;;;;;3.85;3.45;;;7.50;99.90;;;;;;2060882;28;20228;-69
2023/10/25 01:02:34;;;;;;;5.57;4.30;;;7.60;99.90;;;;;;2060293;28;20252;-70
2023/10/25 01:03:35;;;;;;;5.57;4.47;;;7.50;99.90;;;;;;2056840;28;20471;-70
2023/10/25 01:04:36;;;;;;;4.35;3.95;;;7.60;99.90;;;;;;2052220;28;20332;-70
2023/10/25 01:05:37;;;;;;;6.73;5.10;;;7.60;99.90;;;;;;2058055;28;20235;-69
2023/10/25 01:06:38;;;;;;;4.97;4.10;;;7.60;99.90;;;;;;2062225;28;20822;-70
2023/10/25 01:07:38;;;;;;;5.07;4.57;;;7.70;99.90;;;;;;2060266;28;20266;-69
2023/10/25 01:08:40;;;;;;;4.87;4.37;;;7.70;99.90;;;;;;2063993;28;20325;-70
2023/10/25 01:09:41;;;;;;;6.32;4.90;;;7.70;99.90;;;;;;2063629;28;20645;-70
2023/10/25 01:10:41;;;;;;;6.63;5.10;;;7.80;99.90;;;;;;2063098;28;20237;-69
2023/10/25 01:11:42;;;;;;;6.47;4.40;;;7.70;99.90;;;;;;2063171;28;20310;-70
2023/10/25 01:12:43;;;;;;;7.43;5.10;;;7.70;99.90;;;;;;2062913;28;20313;-69
2023/10/25 01:13:44;;;;;;;4.77;4.13;;;7.70;99.90;;;;;;2063408;28;20241;-70
2023/10/25 01:14:49;;;;;;;5.63;5.10;;;7.70;99.90;;;;;;2062810;28;20245;-70
2023/10/25 01:15:50;;;;;;;8.07;6.00;;;7.70;99.90;;;;;;2061315;28;20659;-70
2023/10/25 01:16:51;;;;;;;8.05;6.05;;;7.70;99.90;;;;;;2065440;28;20304;-69
2023/10/25 01:17:52;;;;;;;6.50;5.70;;;7.60;99.90;;;;;;2065085;28;20213;-70
2023/10/25 01:18:52;;;;;;;6.50;5.73;;;7.70;99.90;;;;;;2062377;28;20245;-69
2023/10/25 01:19:53;;;;;;;7.67;6.27;;;7.60;99.90;;;;;;2063312;28;20246;-70
2023/10/25 01:20:55;;;;;;;8.50;5.80;;;7.60;99.90;;;;;;2056282;28;20252;-70
2023/10/25 01:21:55;;;;;;;10.63;7.53;;;7.60;99.90;;;;;;2061867;28;20690;-70
2023/10/25 01:22:56;;;;;;;7.83;6.70;;;7.60;99.90;;;;;;2067757;28;20290;-69
2023/10/25 01:23:57;;;;;;;12.03;8.20;;;7.60;99.90;;;;;;2067752;28;20315;-69
2023/10/25 01:24:57;;;;;;;11.40;7.70;;;7.60;99.90;;;;;;2059266;28;20266;-70
2023/10/25 01:25:58;;;;;;;9.43;7.63;;;7.70;99.90;;;;;;2058437;28;20284;-69
2023/10/25 01:26:58;;;;;;;9.17;7.07;;;7.70;99.90;;;;;;2063035;28;20248;-70
2023/10/25 01:27:59;;;;;;;11.90;8.20;;;7.70;99.90;;;;;;2061394;28;20259;-69
2023/10/25 01:29:00;;;;;;;11.87;8.00;;;7.70;99.90;;;;;;2054692;28;20697;-69
2023/10/25 01:30:00;;;;;;;13.67;8.27;;;7.80;99.90;;;;;;2061349;28;20740;-70
2023/10/25 01:31:01;;;;;;;7.47;5.83;;;7.80;99.90;;;;;;2054057;28;20281;-70
2023/10/25 01:32:02;;;;;;;12.50;7.90;;;7.80;99.90;;;;;;2062239;28;20671;-70
2023/10/25 01:33:03;;;;;;;7.53;6.00;;;7.80;99.90;;;;;;2062683;28;20511;-70
2023/10/25 01:34:03;;;;;;;15.07;9.20;;;7.80;99.90;;;;;;2060127;28;20208;-70
2023/10/25 01:35:05;;;;;;;11.90;7.17;;;7.80;99.90;;;;;;2053272;28;20190;-70
2023/10/25 01:36:05;;;;;;;10.75;6.82;;;7.80;99.90;;;;;;2053938;28;20293;-70
2023/10/25 01:37:06;;;;;;;9.40;6.50;;;7.80;99.90;;;;;;2062078;28;20176;-69
2023/10/25 01:38:06;;;;;;;8.53;5.93;;;7.80;99.90;;;;;;2062458;28;20257;-70
2023/10/25 01:39:07;;;;;;;6.63;5.17;;;7.70;99.90;;;;;;2070411;28;20188;-70
2023/10/25 01:40:09;;;;;;;10.30;6.17;;;7.70;99.90;;;;;;2061618;28;20198;-70
2023/10/25 01:41:15;;;;;;;9.05;6.30;;;7.80;99.90;;;;;;2060869;28;20235;-70
2023/10/25 01:42:16;;;;;;;9.07;6.55;;;7.70;99.90;;;;;;2061134;28;20179;-70
2023/10/25 01:43:17;;;;;;;7.70;6.07;;;7.70;99.90;;;;;;2062876;28;20197;-70
2023/10/25 01:44:17;;;;;;;11.73;7.50;;;7.70;99.90;;;;;;2062850;28;20189;-70
2023/10/25 01:45:18;;;;;;;9.40;7.13;;;7.70;99.90;;;;;;2063507;28;20232;-70
2023/10/25 01:46:19;;;;;;;11.55;7.60;;;7.60;99.90;;;;;;2063113;28;20205;-69
2023/10/25 01:47:20;;;;;;;15.30;8.60;;;7.60;99.90;;;;;;2056663;28;20194;-69
2023/10/25 01:48:20;;;;;;;8.67;7.27;;;7.50;99.90;;;;;;2054641;28;20294;-69
2023/10/25 01:49:21;;;;;;;10.80;7.90;;;7.50;99.90;;;;;;2061554;28;20291;-69
2023/10/25 01:50:22;;;;;;;16.87;7.87;;;7.50;99.90;;;;;;2070854;28;20233;-69
2023/10/25 01:51:23;;;;;;;14.70;8.63;;;7.50;99.90;;;;;;2069857;28;20952;-70
2023/10/25 01:52:23;;;;;;;10.30;7.73;;;7.60;99.90;;;;;;2052458;28;20475;-70
2023/10/25 01:53:24;;;;;;;12.47;8.40;;;7.70;99.90;;;;;;2061612;28;20646;-69
2023/10/25 01:54:24;;;;;;;10.90;7.90;;;7.80;99.90;;;;;;2060295;28;20269;-70
2023/10/25 01:55:25;;;;;;;11.80;8.17;;;7.90;99.90;;;;;;2061941;28;20714;-69
2023/10/25 01:56:26;;;;;;;18.50;8.90;;;8.00;99.90;;;;;;2054624;28;20245;-70
2023/10/25 01:57:26;;;;;;;9.53;7.00;;;8.00;99.90;;;;;;2059336;28;20720;-69
2023/10/25 01:58:27;;;;;;;15.20;9.40;;;8.00;99.90;;;;;;2060716;28;20241;-70
2023/10/25 01:59:29;;;;;;;13.33;8.23;;;8.00;99.90;;;;;;2061999;28;20234;-69
2023/10/25 02:00:29;;;;;;;14.00;8.27;;;8.00;99.90;;;;;;2060677;28;20240;-69
2023/10/25 02:01:30;;;;;;;11.03;8.23;;;8.10;99.90;;;;;;2057668;28;20238;-70
2023/10/25 02:02:30;;;;;;;12.97;7.57;;;8.10;99.90;;;;;;2062191;28;20285;-69
2023/10/25 02:03:31;;;;;;;10.43;6.83;;;8.00;99.90;;;;;;2059406;28;20396;-69
2023/10/25 02:04:31;;;;;;;10.00;7.87;;;7.80;99.90;;;;;;2063803;28;20331;-70
2023/10/25 02:05:32;;;;;;;9.07;7.17;;;7.70;99.90;;;;;;2062460;28;20265;-69
2023/10/25 02:06:33;;;;;;;14.87;7.80;;;7.60;99.90;;;;;;2062503;28;20729;-70
2023/10/25 02:07:34;;;;;;;7.77;6.97;;;7.60;99.90;;;;;;2062858;28;20328;-69
2023/10/25 02:08:34;;;;;;;8.48;7.32;;;7.60;99.90;;;;;;2062117;28;20237;-70
2023/10/25 02:09:35;;;;;;;8.47;6.77;;;7.70;99.90;;;;;;2061062;28;20238;-69
2023/10/25 02:10:36;;;;;;;8.97;7.40;;;7.70;99.90;;;;;;2066298;28;20618;-70
2023/10/25 02:11:36;;;;;;;7.23;6.40;;;7.60;99.90;;;;;;2064857;28;20230;-69
2023/10/25 02:12:37;;;;;;;9.83;7.13;;;7.70;99.90;;;;;;2063689;28;20232;-69
2023/10/25 02:13:38;;;;;;;7.77;6.67;;;7.70;99.90;;;;;;2054886;28;20317;-69
2023/10/25 02:14:39;;;;;;;6.47;5.88;;;7.60;99.90;;;;;;2060402;28;20380;-69
2023/10/25 02:15:40;;;;;;;8.17;5.40;;;7.40;99.90;;;;;;2058583;28;20729;-69
2023/10/25 02:16:41;;;;;;;5.07;4.63;;;7.40;99.90;;;;;;2050334;28;20233;-70
2023/10/25 02:17:42;;;;;;;5.32;4.82;;;7.40;99.90;;;;;;2051782;28;20230;-69
2023/10/25 02:18:43;;;;;;;8.90;5.83;;;7.30;99.90;;;;;;2053942;28;20229;-69
2023/10/25 02:19:45;;;;;;;5.03;4.53;;;7.30;99.90;;;;;;2062084;28;20228;-70
2023/10/25 02:20:45;;;;;;;6.43;5.53;;;7.30;99.90;;;;;;2062464;28;20229;-69
2023/10/25 02:21:46;;;;;;;6.80;5.67;;;7.30;99.90;;;;;;2061859;28;20230;-69
2023/10/25 02:22:47;;;;;;;6.47;5.20;;;7.30;99.90;;;;;;2062842;28;20272;-70
2023/10/25 02:23:48;;;;;;;5.63;5.13;;;7.40;99.90;;;;;;2058462;28;20689;-69
2023/10/25 02:24:49;;;;;;;5.70;5.07;;;7.40;99.90;;;;;;2062237;28;20242;-69
2023/10/25 02:25:50;;;;;;;5.55;5.05;;;7.30;99.90;;;;;;2052448;28;20236;-70
2023/10/25 02:26:51;;;;;;;7.33;6.20;;;7.30;99.90;;;;;;2056223;28;20256;-69
2023/10/25 02:27:52;;;;;;;4.72;4.32;;;7.20;99.90;;;;;;2055183;28;20685;-69
2023/10/25 02:28:53;;;;;;;5.73;4.57;;;7.30;99.90;;;;;;2058708;28;20232;-69
2023/10/25 02:29:53;;;;;;;6.53;5.93;;;7.30;99.90;;;;;;2063283;28;20280;-70
2023/10/25 02:30:54;;;;;;;6.53;5.50;;;7.30;99.90;;;;;;2062977;28;20237;-69
2023/10/25 02:31:55;;;;;;;6.10;5.50;;;7.40;99.90;;;;;;2062160;28;20240;-69
2023/10/25 02:32:55;;;;;;;7.83;6.10;;;7.40;99.90;;;;;;2060616;28;20247;-69
2023/10/25 02:33:56;;;;;;;6.90;6.20;;;7.30;99.90;;;;;;2061633;28;20232;-69
2023/10/25 02:34:56;;;;;;;7.37;6.53;;;7.30;99.90;;;;;;2061984;28;20232;-69
2023/10/25 02:35:57;;;;;;;6.37;5.70;;;7.30;99.90;;;;;;2062727;28;20236;-69
2023/10/25 02:36:58;;;;;;;5.50;5.00;;;7.30;99.90;;;;;;2062331;28;20229;-69
2023/10/25 02:37:58;;;;;;;6.30;5.10;;;7.30;99.90;;;;;;2062328;28;20225;-69
2023/10/25 02:38:59;;;;;;;6.47;5.87;;;7.40;99.90;;;;;;2055307;28;20229;-69
2023/10/25 02:40:00;;;;;;;6.90;6.20;;;7.40;99.90;;;;;;2062890;28;20260;-69
2023/10/25 02:41:00;;;;;;;5.50;5.00;;;7.40;99.90;;;;;;2062750;28;20679;-69
2023/10/25 02:42:01;;;;;;;6.37;5.67;;;7.40;99.90;;;;;;2063565;28;20316;-70
2023/10/25 02:43:01;;;;;;;6.83;5.57;;;7.30;99.90;;;;;;2056665;28;20639;-70
2023/10/25 02:44:02;;;;;;;6.33;5.73;;;7.30;99.90;;;;;;2062746;28;20237;-70
2023/10/25 02:45:03;;;;;;;6.27;5.67;;;7.30;99.90;;;;;;2062078;28;20186;-69
2023/10/25 02:46:08;;;;;;;9.30;6.83;;;7.30;99.90;;;;;;2068591;28;20200;-70
2023/10/25 02:47:09;;;;;;;6.80;6.10;;;7.20;99.90;;;;;;2060410;28;20432;-70
2023/10/25 02:48:13;;;;;;;5.97;5.47;;;7.30;99.90;;;;;;2054970;28;20198;-69
2023/10/25 02:49:13;;;;;;;7.57;6.35;;;7.20;99.90;;;;;;2053180;28;20210;-69
2023/10/25 02:50:15;;;;;;;6.10;5.50;;;7.20;99.90;;;;;;2054512;28;20194;-69
2023/10/25 02:51:16;;;;;;;7.22;5.97;;;7.30;99.90;;;;;;2054473;28;20662;-69
2023/10/25 02:52:17;;;;;;;7.10;6.00;;;7.30;99.90;;;;;;2054153;28;20187;-69
2023/10/25 02:53:17;;;;;;;7.33;6.47;;;7.40;99.90;;;;;;2051414;28;20562;-70
2023/10/25 02:54:18;;;;;;;6.30;5.70;;;7.40;99.90;;;;;;2051492;28;20657;-69
2023/10/25 02:55:18;;;;;;;7.40;6.70;;;7.30;99.90;;;;;;2053184;28;20210;-69
2023/10/25 02:56:19;;;;;;;7.17;6.47;;;7.40;99.90;;;;;;2053542;28;20194;-69
2023/10/25 02:57:19;;;;;;;7.77;6.90;;;7.40;99.90;;;;;;2060348;28;20314;-69
2023/10/25 02:58:20;;;;;;;7.23;6.03;;;7.40;99.90;;;;;;2054037;28;20237;-70
2023/10/25 02:59:21;;;;;;;6.40;5.80;;;7.40;99.90;;;;;;2053724;28;20242;-70
2023/10/25 03:00:21;;;;;;;8.10;6.40;;;7.40;99.90;;;;;;2052601;28;20233;-69
2023/10/25 03:01:23;;;;;;;7.07;6.33;;;7.30;99.90;;;;;;2053852;28;20232;-69
2023/10/25 03:02:24;;;;;;;8.27;7.40;;;7.30;99.90;;;;;;2053619;28;20234;-69
2023/10/25 03:03:30;;;;;;;8.30;7.40;;;7.20;99.90;;;;;;2060997;28;20237;-69
2023/10/25 03:04:30;;;;;;;7.30;6.60;;;7.30;99.90;;;;;;2059891;28;20242;-70
2023/10/25 03:05:31;;;;;;;6.57;5.87;;;7.30;99.90;;;;;;2051386;28;20258;-69
2023/10/25 03:06:32;;;;;;;9.37;8.43;;;7.30;99.90;;;;;;2050832;28;20245;-69
2023/10/25 03:07:32;;;;;;;8.10;6.80;;;7.30;99.90;;;;;;2058636;28;20225;-69
2023/10/25 03:08:33;;;;;;;7.23;6.53;;;7.30;99.90;;;;;;2057980;28;20554;-69
2023/10/25 03:09:33;;;;;;;6.50;5.90;;;7.30;99.90;;;;;;2054449;28;20699;-69
2023/10/25 03:10:34;;;;;;;9.13;6.73;;;7.30;99.90;;;;;;2054686;28;20232;-69
2023/10/25 03:11:35;;;;;;;7.33;6.63;;;7.30;99.90;;;;;;2054832;28;20276;-69
2023/10/25 03:12:35;;;;;;;7.17;6.30;;;7.20;99.90;;;;;;2054306;28;20661;-69
2023/10/25 03:13:36;;;;;;;8.77;7.03;;;7.30;99.90;;;;;;2052583;28;20238;-69
2023/10/25 03:14:36;;;;;;;8.97;8.07;;;7.20;99.90;;;;;;2053546;28;20730;-69
2023/10/25 03:15:37;;;;;;;8.70;7.20;;;7.30;99.90;;;;;;2052964;28;20293;-70
2023/10/25 03:16:38;;;;;;;7.43;6.73;;;7.30;99.90;;;;;;2053291;28;20230;-69
2023/10/25 03:17:38;;;;;;;7.30;6.00;;;7.30;99.90;;;;;;2052719;28;20223;-69
2023/10/25 03:18:39;;;;;;;6.80;6.10;;;7.30;99.90;;;;;;2053816;28;20999;-70
2023/10/25 03:19:39;;;;;;;7.63;6.87;;;7.40;99.90;;;;;;2053097;28;20233;-69
2023/10/25 03:20:40;;;;;;;7.70;6.90;;;7.40;99.90;;;;;;2054027;28;20235;-70
2023/10/25 03:21:41;;;;;;;7.60;6.90;;;7.40;99.90;;;;;;2054478;28;20289;-69
2023/10/25 03:22:41;;;;;;;7.50;6.70;;;7.50;99.90;;;;;;2055810;28;20225;-69
2023/10/25 03:23:42;;;;;;;7.40;6.70;;;7.60;99.90;;;;;;2054917;28;20233;-70
2023/10/25 03:24:42;;;;;;;7.50;6.80;;;7.60;99.90;;;;;;2053819;28;20720;-69
2023/10/25 03:25:43;;;;;;;6.50;5.90;;;7.60;99.90;;;;;;2052658;28;20934;-69
2023/10/25 03:26:44;;;;;;;7.90;7.10;;;7.60;99.90;;;;;;2061427;28;20223;-70
2023/10/25 03:27:44;;;;;;;7.73;6.93;;;7.60;99.90;;;;;;2059510;28;20242;-70
2023/10/25 03:28:45;;;;;;;7.60;6.80;;;7.70;99.90;;;;;;2061270;28;20256;-70
2023/10/25 03:29:45;;;;;;;6.33;5.73;;;7.70;99.90;;;;;;2063304;28;20679;-69
2023/10/25 03:30:46;;;;;;;6.97;6.27;;;7.80;99.90;;;;;;2052485;28;20243;-69
2023/10/25 03:31:47;;;;;;;7.03;6.07;;;7.80;99.90;;;;;;2055752;28;20317;-69
2023/10/25 03:32:47;;;;;;;5.97;5.33;;;7.90;99.90;;;;;;2055488;28;20227;-69
2023/10/25 03:33:48;;;;;;;6.33;5.77;;;7.80;99.90;;;;;;2055802;28;20732;-69
2023/10/25 03:34:51;;;;;;;6.13;5.40;;;7.80;99.90;;;;;;2053985;28;20353;-69
2023/10/25 03:35:53;;;;;;;5.57;5.07;;;7.80;99.90;;;;;;2053556;28;20229;-69
2023/10/25 03:36:53;;;;;;;5.65;5.15;;;7.80;99.90;;;;;;2055081;28;20386;-69
2023/10/25 03:37:54;;;;;;;5.20;4.80;;;7.90;99.90;;;;;;2062603;28;20245;-69
2023/10/25 03:38:55;;;;;;;5.72;5.22;;;7.90;99.90;;;;;;2063288;28;20224;-69
2023/10/25 03:39:56;;;;;;;5.33;4.83;;;7.90;99.90;;;;;;2059131;28;20218;-69
2023/10/25 03:41:15;;;;;;;5.47;5.07;;;7.90;99.90;;;;;;2058892;28;20692;-69
2023/10/25 03:42:15;;;;;;;5.15;4.65;;;7.90;99.90;;;;;;2062395;28;20240;-69
2023/10/25 03:43:16;;;;;;;5.70;5.20;;;7.80;99.90;;;;;;2062611;28;20178;-69
2023/10/25 03:44:16;;;;;;;5.80;5.20;;;7.70;99.90;;;;;;2070098;28;20219;-70
2023/10/25 03:45:17;;;;;;;5.70;5.20;;;7.60;99.90;;;;;;2070260;28;20300;-70
2023/10/25 03:46:18;;;;;;;5.83;5.33;;;7.60;99.90;;;;;;2063003;28;20189;-70
2023/10/25 03:47:18;;;;;;;5.23;4.83;;;7.60;99.90;;;;;;2059275;28;20186;-70
2023/10/25 03:48:19;;;;;;;5.40;4.90;;;7.50;99.90;;;;;;2060509;28;20191;-69
2023/10/25 03:49:20;;;;;;;6.00;5.00;;;7.50;99.90;;;;;;2071513;28;20285;-69
2023/10/25 03:50:21;;;;;;;4.87;4.47;;;7.40;99.90;;;;;;2069042;28;20996;-68
2023/10/25 03:51:21;;;;;;;5.50;5.00;;;7.40;99.90;;;;;;2062851;28;20360;-69
2023/10/25 03:52:22;;;;;;;5.23;4.77;;;7.30;99.90;;;;;;2068076;28;20287;-69
2023/10/25 03:53:23;;;;;;;4.77;4.37;;;7.30;99.90;;;;;;2064457;28;20230;-68
2023/10/25 03:54:23;;;;;;;5.03;4.63;;;7.30;99.90;;;;;;2063812;28;20304;-68
2023/10/25 03:55:24;;;;;;;5.10;4.70;;;7.30;99.90;;;;;;2069381;28;20240;-69
2023/10/25 03:56:24;;;;;;;5.27;4.87;;;7.30;99.90;;;;;;2060367;28;20573;-68
2023/10/25 03:57:26;;;;;;;4.90;4.50;;;7.30;99.90;;;;;;2063217;28;20297;-68
2023/10/25 03:58:27;;;;;;;5.45;4.43;;;7.20;99.90;;;;;;2061071;28;20223;-69
2023/10/25 03:59:27;;;;;;;5.37;4.90;;;7.30;99.90;;;;;;2063226;28;20252;-68
2023/10/25 04:00:28;;;;;;;5.83;5.33;;;7.20;99.90;;;;;;2062740;28;20238;-68
2023/10/25 04:01:29;;;;;;;5.30;4.80;;;7.20;99.90;;;;;;2061005;28;20230;-68
2023/10/25 04:02:30;;;;;;;5.00;4.60;;;7.20;99.90;;;;;;2064219;28;20644;-68
2023/10/25 04:03:31;;;;;;;5.87;4.87;;;7.20;99.90;;;;;;2071956;28;20272;-69
2023/10/25 04:04:31;;;;;;;4.70;4.30;;;7.30;99.90;;;;;;2067747;28;20237;-69
2023/10/25 04:05:32;;;;;;;5.50;5.00;;;7.30;99.90;;;;;;2062710;28;20229;-68
2023/10/25 04:06:33;;;;;;;4.87;4.47;;;7.30;99.90;;;;;;2063337;28;20680;-68
2023/10/25 04:07:33;;;;;;;6.27;5.10;;;7.40;99.90;;;;;;2059325;28;20289;-69
2023/10/25 04:08:35;;;;;;;6.83;4.23;;;7.40;99.90;;;;;;2055250;28;20235;-68
2023/10/25 04:09:35;;;;;;;5.03;4.60;;;7.40;99.90;;;;;;2055506;28;20242;-68
2023/10/25 04:10:36;;;;;;;4.50;4.10;;;7.40;99.90;;;;;;2063036;28;20225;-69
2023/10/25 04:11:36;;;;;;;3.87;3.57;;;7.40;99.90;;;;;;2063771;28;20234;-68
2023/10/25 04:12:38;;;;;;;4.70;4.27;;;7.30;99.90;;;;;;2056992;28;20234;-68
2023/10/25 04:13:39;;;;;;;4.75;4.35;;;7.30;99.90;;;;;;2062558;28;20236;-68
2023/10/25 04:14:46;;;;;;;4.40;4.00;;;7.30;99.90;;;;;;2058714;28;20241;-69
2023/10/25 04:16:13;;;;;;;5.18;4.72;;;7.20;99.90;;;;;;2063717;28;20399;-68
2023/10/25 04:17:13;;;;;;;5.25;4.82;;;7.30;99.90;;;;;;2056013;28;20237;-69
2023/10/25 04:18:14;;;;;;;4.87;4.20;;;7.20;99.90;;;;;;2060265;28;20214;-68
2023/10/25 04:19:15;;;;;;;5.27;4.77;;;7.20;99.90;;;;;;2062994;28;20278;-68
2023/10/25 04:20:15;;;;;;;5.53;5.03;;;7.20;99.90;;;;;;2060675;28;20198;-69
2023/10/25 04:21:16;;;;;;;5.17;4.73;;;7.20;99.90;;;;;;2053353;28;20183;-69
2023/10/25 04:22:17;;;;;;;5.33;4.83;;;7.10;99.90;;;;;;2061905;28;20681;-69
2023/10/25 04:23:18;;;;;;;5.00;4.60;;;7.10;99.90;;;;;;2060563;28;20216;-68
2023/10/25 04:24:19;;;;;;;5.68;5.18;;;7.10;99.90;;;;;;2062555;28;20213;-69
2023/10/25 04:25:19;;;;;;;6.27;4.80;;;7.10;99.90;;;;;;2064198;28;20217;-69
2023/10/25 04:26:20;;;;;;;5.47;4.97;;;7.10;99.90;;;;;;2071217;28;20300;-69
2023/10/25 04:27:21;;;;;;;5.40;4.90;;;7.20;99.90;;;;;;2070828;28;20239;-69
2023/10/25 04:28:21;;;;;;;5.10;4.60;;;7.10;99.90;;;;;;2062366;28;20228;-69
2023/10/25 04:29:22;;;;;;;5.13;4.73;;;7.10;99.90;;;;;;2061566;28;20314;-69
2023/10/25 04:30:23;;;;;;;6.30;5.60;;;7.10;99.90;;;;;;2063178;28;20262;-69
2023/10/25 04:31:23;;;;;;;5.63;5.13;;;7.10;99.90;;;;;;2064896;28;20287;-69
2023/10/25 04:32:24;;;;;;;6.30;5.70;;;7.10;99.90;;;;;;2067153;28;20226;-70
2023/10/25 04:33:26;;;;;;;6.47;5.87;;;7.10;99.90;;;;;;2071914;28;20240;-69
2023/10/25 04:34:26;;;;;;;6.60;5.70;;;7.20;99.90;;;;;;2062657;28;20235;-69
2023/10/25 04:35:27;;;;;;;6.40;5.80;;;7.20;99.90;;;;;;2060849;28;20235;-69
2023/10/25 04:36:28;;;;;;;7.60;6.90;;;7.20;99.90;;;;;;2064213;28;20263;-69
2023/10/25 04:37:28;;;;;;;11.17;10.07;;;7.20;99.90;;;;;;2063747;28;20319;-69
2023/10/25 04:38:30;;;;;;;7.97;7.17;;;7.20;99.90;;;;;;2062313;28;20259;-69
2023/10/25 04:39:31;;;;;;;9.68;7.93;;;7.10;99.90;;;;;;2061594;28;20234;-68
2023/10/25 04:40:31;;;;;;;8.10;7.30;;;7.20;99.90;;;;;;2059824;28;20317;-69
2023/10/25 04:41:32;;;;;;;7.20;6.33;;;7.10;99.90;;;;;;2058988;28;20237;-69
2023/10/25 04:42:33;;;;;;;8.73;7.40;;;7.10;99.90;;;;;;2069118;28;20699;-69
2023/10/25 04:43:33;;;;;;;7.73;7.00;;;7.20;99.90;;;;;;2069368;28;20257;-69
2023/10/25 04:44:34;;;;;;;9.17;8.27;;;7.10;99.90;;;;;;2063376;28;20244;-68
2023/10/25 04:45:35;;;;;;;8.37;7.57;;;7.10;99.90;;;;;;2062800;28;20328;-68
2023/10/25 04:46:36;;;;;;;9.93;8.37;;;7.10;99.90;;;;;;2061476;28;20241;-68
2023/10/25 04:47:36;;;;;;;9.27;8.37;;;7.10;99.90;;;;;;2058490;28;21111;-69
2023/10/25 04:48:37;;;;;;;9.37;8.30;;;7.10;99.90;;;;;;2060479;28;20617;-69
2023/10/25 04:49:37;;;;;;;9.83;8.83;;;7.10;99.90;;;;;;2063463;28;20264;-68
2023/10/25 04:50:38;;;;;;;10.37;9.33;;;7.10;99.90;;;;;;2063798;28;20714;-68
2023/10/25 04:51:39;;;;;;;10.57;9.40;;;7.10;99.90;;;;;;2063084;28;20221;-68
2023/10/25 04:52:40;;;;;;;11.87;9.83;;;7.10;99.90;;;;;;2062443;28;20687;-68
2023/10/25 04:53:41;;;;;;;10.63;9.20;;;7.20;99.90;;;;;;2060993;28;20268;-68
2023/10/25 04:54:43;;;;;;;12.63;10.13;;;7.20;99.90;;;;;;2060928;28;20238;-69
2023/10/25 04:55:45;;;;;;;10.73;9.63;;;7.20;99.90;;;;;;2061884;28;20643;-68
2023/10/25 04:56:46;;;;;;;11.82;9.65;;;7.20;99.90;;;;;;2048776;28;20231;-69
2023/10/25 04:57:46;;;;;;;12.30;9.60;;;7.30;99.90;;;;;;2046744;28;20259;-69
2023/10/25 04:58:47;;;;;;;11.43;9.53;;;7.20;99.90;;;;;;2055088;28;20232;-68
2023/10/25 04:59:48;;;;;;;11.77;9.70;;;7.20;99.90;;;;;;2052067;28;20225;-68
2023/10/25 05:00:49;;;;;;;13.00;10.60;;;7.20;99.90;;;;;;2058974;28;20223;-68
2023/10/25 05:01:49;;;;;;;12.57;9.93;;;7.20;99.90;;;;;;2063245;28;20247;-68
2023/10/25 05:02:50;;;;;;;15.73;10.80;;;7.20;99.90;;;;;;2063551;28;20340;-68
2023/10/25 05:03:51;;;;;;;11.67;10.10;;;7.20;99.90;;;;;;2059051;28;20237;-68
2023/10/25 05:04:51;;;;;;;11.07;9.97;;;7.20;99.90;;;;;;2062944;28;20234;-68
2023/10/25 05:05:54;;;;;;;11.07;9.30;;;7.20;99.90;;;;;;2058849;28;20240;-69
2023/10/25 05:06:55;;;;;;;23.77;17.02;;;7.20;99.90;;;;;;2058915;28;20689;-69
2023/10/25 05:07:56;;;;;;;20.17;13.90;;;7.20;99.90;;;;;;2051059;28;20219;-68
2023/10/25 05:08:57;;;;;;;29.80;22.20;;;7.20;99.90;;;;;;2049506;28;20301;-69
2023/10/25 05:09:58;;;;;;;18.27;14.47;;;7.30;99.90;;;;;;2049832;28;20230;-68
2023/10/25 05:11:05;;;;;;;23.17;17.23;;;7.30;99.90;;;;;;2059879;28;20221;-69
2023/10/25 05:12:10;;;;;;;17.02;12.35;;;7.30;99.90;;;;;;2057079;28;20273;-68
2023/10/25 05:13:13;;;;;;;16.75;14.10;;;7.30;99.90;;;;;;2059224;28;20186;-68
2023/10/25 05:14:14;;;;;;;15.80;12.68;;;7.30;99.90;;;;;;2058880;28;20200;-69
2023/10/25 05:15:17;;;;;;;16.20;11.80;;;7.40;99.90;;;;;;2057658;28;20198;-69
2023/10/25 05:16:18;;;;;;;15.55;12.48;;;7.40;99.90;;;;;;2062443;28;20244;-69
2023/10/25 05:17:19;;;;;;;14.60;11.80;;;7.30;99.90;;;;;;2055737;28;20197;-69
2023/10/25 05:18:19;;;;;;;16.07;12.93;;;7.30;99.90;;;;;;2060229;28;20244;-69
2023/10/25 05:19:20;;;;;;;16.43;12.87;;;7.30;99.90;;;;;;2057965;28;20436;-69
2023/10/25 05:20:21;;;;;;;15.13;12.20;;;7.30;99.90;;;;;;2063776;28;20667;-69